Portada
METAR-TAF:

METAR-TAF

Aeropuertos :

Aeropuerto de Burgos

Burgos, España

latitud: 42-22N, longitud: 003-38W, altitud: 894 m

Observación

El informe se hizo hace 42 minutos, a las 08:30 UTC
Viento 8 kt del norte-noreste
Temperatura 16°C
Humedad 82%
Presión 1019 hPa
Visibilidad 10 km o más
Escasas nubes a una altura de 3500 ft

METAR: LEBG 140830Z 03008KT 9999 FEW035 16/13 Q1019

Hora: 11:12 (09:12 UTC)


TAF: falta

Observaciones y pronósticos meteorológicos de más de 4000 aeropuertos (mensajes METAR y TAF).

Los puntos amarillos y rojos representan las estaciones disponibles.

Ponga el ratón en el punto deseado para ver el nombre de la estación.

Haga clic para ver las observaciones y los pronósticos meteorológicos.

Para cambiar el mapa : haga clic en los botones verdes con una cruz de color negro para hacer un zoom, en el botón verde con un guión para alejar o en las flechas verdes para mapas adyacentes.


METAR-TAF: